Relevés horaires Semmerzake (Belgique)


Relevés horaires à Semmerzake - Lundi 07 Juin 2021
Heure UTC1 Température [°C] Vent [km/h] Hum. [%] Pres.4 [hPa] Visi. [Km] Nébu. [octa] Préc.5 [mm] Cond.
2m. Res. Ros. Dir.2 Vit. Moy. Raf.3
23:00 13.6 13.6 10.6 NNO 1.9 -- 3.7 82 1023.2(0.0/3h) 17 -- -- --
22:00 14.7 14.7 10.8 NNO 1.9 -- 3.7 77 1023.2(0.5/3h) 20 -- -- --
21:00 15.5 15.5 10.7 NNO 1.9 -- 13.0 73 1023.5(1.0/3h) 20 -- -- --
20:00 16.9 16.9 10.9 N 3.7 -- 9.3 68 1023.2(0.8/3h) 20 -- -- --
19:00 19.0 19.0 10.8 N 5.6 -- 13.0 59 1022.7(0.0/3h) 20 -- -- --
18:00 20.8 20.8 11.4 N 7.4 -- 13.0 55 1022.3(-0.6/3h) 18 -- -- --
17:00 22.8 22.8 8.3 NNO 1.9 -- 7.4 39 1022.2(-1.0/3h) 18 -- -- --
16:00 22.6 22.6 8.3 E 3.7 -- 9.3 40 1022.6(-0.9/3h) 20 -- -- --
15:00 23.1 23.1 7.3 ESE 3.7 -- 9.3 36 1023(-0.7/3h) 20 -- -- --
14:00 23.1 23.1 9.8 ENE 3.7 -- 9.3 43 1023.2(-0.8/3h) 18 -- -- --
13:00 22.1 22.1 9.0 NE 3.7 -- 9.3 43 1023.5(-0.8/3h) 16 -- -- --
12:00 21.4 21.4 9.6 NNE 3.7 -- 11.1 47 1023.7(-0.5/3h) 20 -- -- --
11:00 20.4 20.4 8.8 NE 5.6 -- 11.1 47 1024.2(-0.3/3h) 20 -- -- --
10:00 19.5 19.5 8.8 NNE 3.7 -- 7.4 50 1024.2(-0.1/3h) 19 -- -- --
09:00 18.0 18.0 10.3 NNO 3.7 -- 9.3 61 1024.4(0.1/3h) 20 -- -- --
08:00 16.8 16.8 11.1 NE 3.7 -- 7.4 69 1024.5(0.1/3h) 18 -- -- --
07:00 15.6 15.6 10.6 ENE 3.7 -- 9.3 72 1024.5(0.2/3h) 20 -- -- --
06:00 14.0 14.0 10.3 NE 3.7 -- 7.4 78 1024.5(0.3/3h) 19 -- -- --
05:00 12.1 12.1 10.0 NNO 1.9 -- 3.7 87 1024.5(0.2/3h) 15 -- -- --
04:00 10.6 10.6 9.0 NNO 3.7 -- 3.7 90 1024.2(0.0/3h) 13 -- -- --
03:00 10.8 10.8 9.1 NNO 1.9 -- 3.7 89 1024.2(-0.2/3h) 15 -- -- --
02:00 11.2 11.2 9.5 NNO 1.9 -- 3.7 89 1024.2(-0.4/3h) 17 -- -- --
01:00 11.0 11.0 8.9 NNO 1.9 -- 3.7 87 1024.4(-0.2/3h) 16 -- -- --
00:00 11.8 11.8 9.1 NNO 1.9 -- 11.1 84 1024.5(-0.1/3h) 19 -- -- --

1 Coordinated Universal Time. Actuellement il est 17:00 locale et 15:00 UTC.

2 Le vent souffle depuis la direction indiquée vers la direction oposée.

3 Les rafales max. sont disponible 40 min après l'heure du relevé.

4 Pour les stations d'altitude (plus de 600m) le géopotentiel du niveau le plus proche de la pression obligatoire est indiqué.

5 Les stations disposant d'un diffuseur peuvent indiquer "trace". Cela signifie que des précipitations ont touchés le sol mais que la quantité est inférieure à 0.1 mm.

Récapitulatif de la journée
Température [°C] Vent [km/h] Ensoleillement4 [h] Precipitations totale5 [mm] Pression [Hpa]
Min1 Max.2 Moy.3 Max. Min Max.
10.3 23.4 0 13.0 0 h 0 min 0 1022.2 1024.5

1 Température minimale relevée entre 18:00 UTC la veille et 18:00 UTC le jour donné.

2 Température maximale relevée entre 06:00 UTC le jour donné et 06:00 UTC le lendemain.

3 Vent moyen de la journée basé sur les relevés horaires.

4 Ensoleillement en heures relevé entre 06:00 UTC la veille et 06:00 UTC le jour donné.

5 Précipitations totales tombées entre 06:00 UTC la jour donné et 06:00 UTC le lendemain.

Graphiques horaires